KP53

Munising Lakeshore Observation Airport

Michigan, USA
METAR KP53 162156Z AUTO 20006KT 04/M02 A2983 RMK AO1 SLP108 T00391022
Observed Flight Rules
Dec-16 @ 21:56 UTC (45 minutes ago)
Wind
200° at 6 knots
Temperatures Readings
Current 4°C / 39°F
Dewpoint -2°C / 28°F
Humidity 65%
Altimeter 29.83" Hg
Pressure 1010.8 hPa
Elevation 187
METAR KP53 162156Z AUTO 20006KT 04/M02 A2983 RMK AO1 SLP108 T00391022
Observed Flight Rules
Dec-16 @ 21:56 UTC
(45 minutes ago)
Wind
200° at 6 knots
Temperature Dewpoint
4°C / 39°F -2°C / 28°F
Humidity Altimeter Pressure
65% 29.83" Hg 1010.8 hPa